Terminal Aerodrome Forecast
Issued by NWS Grand Rapids, MI

Home | Current Version | Previous Version | Text Only | Print | Product List | Glossary On
Versions: 1 2 3 4 5 6 7 8 9 10 11 12 13 14 15 16 17 18
000
FTUS43 KGRR 301742
TAFGRR
TAF
KGRR 301742Z 3018/3118 01010G18KT 4SM -RA BR BKN008
     FM310000 03012G22KT 4SM -RA BR OVC007
     FM310700 05017G23KT P6SM -RA OVC015=

USA.gov is the U.S. government's official web portal to all federal, state and local government web resources and services.